Time,TemperatureF,DewpointF,PressureIn,WindDirection,WindDirectionDegrees,WindSpeedMPH,WindSpeedGustMPH,Humidity,HourlyPrecipIn,Conditions,Clouds,dailyrainin,SoftwareType,DateUTC
2013-11-14 00:12:00,37.0,36.0,30.29,West,269,1.0,1.0,97,-99.99,,,-99.99,,2013-11-14 08:12:00,
2013-11-14 00:21:00,37.0,36.0,30.29,SE,132,1.0,2.0,97,-99.99,,,-99.99,,2013-11-14 08:21:00,
2013-11-14 00:42:00,36.0,36.0,30.28,SSE,152,2.0,3.0,98,-99.99,,,-99.99,,2013-11-14 08:42:00,
2013-11-14 01:21:00,36.0,35.0,30.28,SSE,164,0.0,1.0,98,-99.99,,,-99.99,,2013-11-14 09:21:00,
2013-11-14 01:43:00,36.0,36.0,30.27,SE,125,2.0,2.0,98,-99.99,,,-99.99,,2013-11-14 09:43:00,
2013-11-14 02:23:00,37.0,37.0,30.25,SE,139,2.0,4.0,98,-99.99,,,-99.99,,2013-11-14 10:23:00,
2013-11-14 03:21:00,38.0,38.0,30.25,SSW,203,1.0,1.0,96,-99.99,,,-99.99,,2013-11-14 11:21:00,
2013-11-14 03:42:00,38.0,37.0,30.24,East,93,1.0,2.0,95,-99.99,,,-99.99,,2013-11-14 11:42:00,
2013-11-14 04:21:00,40.0,37.0,30.22,SE,130,2.0,3.0,91,-99.99,,,-99.99,,2013-11-14 12:21:00,
2013-11-14 04:42:00,39.0,37.0,30.20,SE,124,2.0,4.0,91,-99.99,,,-99.99,,2013-11-14 12:42:00,
2013-11-14 05:22:00,39.0,36.0,30.19,NE,49,1.0,1.0,90,-99.99,,,-99.99,,2013-11-14 13:22:00,
2013-11-14 05:42:00,39.0,37.0,30.18,ESE,105,3.0,3.0,91,-99.99,,,-99.99,,2013-11-14 13:42:00,
2013-11-14 06:22:00,40.0,37.0,30.18,WNW,291,0.0,3.0,91,-99.99,,,-99.99,,2013-11-14 14:22:00,
2013-11-14 07:21:00,41.0,36.0,30.16,SSE,147,2.0,6.0,83,-99.99,,,-99.99,,2013-11-14 15:21:00,
2013-11-14 07:42:00,44.0,40.0,30.16,West,269,9.0,22.0,87,-99.99,,,-99.99,,2013-11-14 15:42:00,
2013-11-14 08:23:00,46.0,40.0,30.16,West,273,12.0,21.0,80,-99.99,,,-99.99,,2013-11-14 16:23:00,
2013-11-14 09:22:00,47.0,41.0,30.17,West,272,13.0,21.0,80,-99.99,,,-99.99,,2013-11-14 17:22:00,
2013-11-14 10:12:00,48.0,41.0,30.16,West,268,9.0,17.0,77,-99.99,,,-99.99,,2013-11-14 18:12:00,
2013-11-14 10:21:00,47.0,41.0,30.16,West,263,11.0,18.0,77,-99.99,,,-99.99,,2013-11-14 18:21:00,
2013-11-14 10:42:00,49.0,42.0,30.14,West,262,9.0,15.0,76,-99.99,,,-99.99,,2013-11-14 18:42:00,
2013-11-14 11:21:00,49.0,41.0,30.14,West,266,13.0,19.0,74,-99.99,,,-99.99,,2013-11-14 19:21:00,
2013-11-14 11:42:00,50.0,42.0,30.13,WSW,258,9.0,14.0,73,-99.99,,,-99.99,,2013-11-14 19:42:00,
2013-11-14 12:22:00,51.0,40.0,30.12,West,276,11.0,19.0,66,-99.99,,,-99.99,,2013-11-14 20:22:00,
2013-11-14 13:11:00,51.0,40.0,30.11,West,280,10.0,18.0,66,-99.99,,,-99.99,,2013-11-14 21:11:00,
2013-11-14 13:22:00,51.0,40.0,30.10,West,272,12.0,17.0,66,-99.99,,,-99.99,,2013-11-14 21:22:00,
2013-11-14 14:23:00,52.0,41.0,30.09,West,267,8.0,14.0,64,-99.99,,,-99.99,,2013-11-14 22:23:00,
2013-11-14 14:43:00,51.0,41.0,30.08,West,280,12.0,20.0,67,-99.99,,,-99.99,,2013-11-14 22:43:00,
2013-11-14 15:22:00,50.0,42.0,30.08,West,271,7.0,12.0,73,-99.99,,,-99.99,,2013-11-14 23:22:00,
2013-11-14 16:11:00,51.0,42.0,30.09,NNW,334,2.0,6.0,70,-99.99,,,-99.99,,2013-11-15 00:11:00,
2013-11-14 16:21:00,50.0,41.0,30.09,SSW,208,3.0,8.0,71,-99.99,,,-99.99,,2013-11-15 00:21:00,
2013-11-14 16:42:00,50.0,42.0,30.09,West,271,3.0,8.0,74,-99.99,,,-99.99,,2013-11-15 00:42:00,
2013-11-14 17:12:00,49.0,41.0,30.08,West,280,6.0,14.0,75,-99.99,,,-99.99,,2013-11-15 01:12:00,
2013-11-14 17:22:00,48.0,41.0,30.08,West,280,8.0,14.0,75,-99.99,,,-99.99,,2013-11-15 01:22:00,
2013-11-14 17:42:00,48.0,40.0,30.08,WSW,251,7.0,12.0,75,-99.99,,,-99.99,,2013-11-15 01:42:00,
2013-11-14 18:11:00,47.0,41.0,30.08,WNW,285,5.0,9.0,79,-99.99,,,-99.99,,2013-11-15 02:11:00,
2013-11-14 18:22:00,47.0,41.0,30.08,West,279,7.0,12.0,80,-99.99,,,-99.99,,2013-11-15 02:22:00,
2013-11-14 19:21:00,47.0,42.0,30.07,West,270,8.0,12.0,81,-99.99,,,-99.99,,2013-11-15 03:21:00,
2013-11-14 19:44:00,47.0,42.0,30.08,WNW,284,7.0,14.0,80,-99.99,,,-99.99,,2013-11-15 03:44:00,
2013-11-14 20:23:00,47.0,41.0,30.07,WNW,282,7.0,12.0,78,-99.99,,,-99.99,,2013-11-15 04:23:00,
2013-11-14 20:42:00,47.0,40.0,30.07,West,261,5.0,7.0,77,-99.99,,,-99.99,,2013-11-15 04:42:00,
2013-11-14 21:43:00,47.0,41.0,30.08,WSW,237,4.0,7.0,78,-99.99,,,-99.99,,2013-11-15 05:43:00,
2013-11-14 22:43:00,47.0,40.0,30.07,West,270,7.0,10.0,77,-99.99,,,-99.99,,2013-11-15 06:43:00,
2013-11-14 23:21:00,46.0,41.0,30.06,WNW,282,8.0,13.0,80,-99.99,,,-99.99,,2013-11-15 07:21:00,